Flight Track Log - Related Links

Times and Time Zones

All times are in EDT time to prevent confusion due to time zone crossing. See the FIN666 flight status page for this flight to view local times or setup timezone preferences in your user account.

Time Position Orientation Groundspeed Altitude Reporting Facility
EDT Latitude Longitude Course Direction KTS MPH feet Rate Location/Type
Tue 08:22:00 AM 55.8217 13.0768 49° Northeast  Level Estimated
Tue 08:23:00 AM 55.8894 13.2181 49° Northeast  Level Estimated
Tue 08:24:00 AM 55.9568 13.3599 50° Northeast  Level Estimated
Tue 08:25:00 AM 56.0241 13.5021 50° Northeast  Level Estimated
Tue 08:26:00 AM 56.0969 13.6569 50° Northeast  Level Estimated
Tue 08:27:00 AM 56.1695 13.8124 50° Northeast  Level Estimated
Tue 08:28:00 AM 56.2419 13.9684 50° Northeast  Level Estimated
Tue 08:29:00 AM 56.3141 14.1250 50° Northeast  Level Estimated
Tue 08:30:00 AM 56.3861 14.2822 50° Northeast  Level Estimated
Tue 08:31:00 AM 56.4579 14.4399 50° Northeast  Level Estimated
Tue 08:32:00 AM 56.5295 14.5983 51° Northeast  Level Estimated
Tue 08:33:00 AM 56.6010 14.7573 51° Northeast  Level Estimated
Tue 08:34:00 AM 56.6722 14.9169 51° Northeast  Level Estimated
Tue 08:35:00 AM 56.7432 15.0771 51° Northeast  Level Estimated
Tue 08:36:00 AM 56.8139 15.2379 51° Northeast  Level Estimated
Tue 08:37:00 AM 56.8845 15.3993 51° Northeast  Level Estimated
Tue 08:38:00 AM 56.9549 15.5613 51° Northeast  Level Estimated
Tue 08:39:00 AM 57.0251 15.7239 52° Northeast  Level Estimated
Tue 08:40:00 AM 57.0950 15.8871 52° Northeast  Level Estimated
Tue 08:41:00 AM 57.1648 16.0510 52° Northeast  Level Estimated
Tue 08:42:00 AM 57.2363 16.2202 52° Northeast  Level Estimated
Tue 08:43:00 AM 57.3076 16.3902 52° Northeast  Level Estimated
Tue 08:44:00 AM 57.3787 16.5607 52° Northeast  Level Estimated
Tue 08:45:00 AM 57.4496 16.7319 52° Northeast  Level Estimated
Tue 08:46:00 AM 57.5202 16.9038 53° Northeast  Level Estimated
Tue 08:47:00 AM 57.5906 17.0764 53° Northeast  Level Estimated
Tue 08:48:00 AM 57.6607 17.2496 53° Northeast  Level Estimated
Tue 08:49:00 AM 57.7306 17.4235 53° Northeast  Level Estimated
Tue 08:50:00 AM 57.8003 17.5981 53° Northeast  Level Estimated
Tue 08:51:00 AM 57.8697 17.7733 53° Northeast  Level Estimated
Tue 08:52:00 AM 57.9389 17.9492 53° Northeast  Level Estimated
Tue 08:53:00 AM 58.0078 18.1258 54° Northeast  Level Estimated
Tue 08:54:00 AM 58.0765 18.3031 54° Northeast  Level Estimated
Tue 08:55:00 AM 58.1450 18.4810 54° Northeast  Level Estimated
Tue 08:56:00 AM 58.2132 18.6597 54° Northeast  Level Estimated
Tue 08:57:00 AM 58.2811 18.8390 54° Northeast  Level Estimated
Tue 08:58:00 AM 58.3488 19.0190 54° Northeast  Level Estimated
Tue 08:59:00 AM 58.4163 19.1997 54° Northeast  Level Estimated
Tue 09:00:00 AM 58.4835 19.3811 55° Northeast  Level Estimated
Tue 09:01:00 AM 58.5504 19.5632 55° Northeast  Level Estimated
Tue 09:02:00 AM 58.6171 19.7460 55° Northeast  Level Estimated
Tue 09:03:00 AM 58.6835 19.9295 55° Northeast  Level Estimated
Tue 09:04:00 AM 58.7496 20.1137 55° Northeast  Level Estimated
Tue 09:05:00 AM 58.8155 20.2986 55° Northeast  Level Estimated
Tue 09:06:00 AM 58.8811 20.4841 56° Northeast  Level Estimated
Tue 09:07:00 AM 58.9465 20.6704 56° Northeast  Level Estimated
Tue 09:08:00 AM 59.0116 20.8574 56° Northeast  Level Estimated
Tue 09:09:00 AM 59.0764 21.0451 56° Northeast  Level Estimated
Tue 09:10:00 AM 59.1410 21.2335 56° Northeast  Level Estimated
Tue 09:11:00 AM 59.2052 21.4227 56° Northeast  Level Estimated
Tue 09:12:00 AM 59.2692 21.6125 57° Northeast  Level Estimated
Tue 09:13:00 AM 59.3330 21.8031 57° Northeast  Level Estimated
Tue 09:14:00 AM 59.3929 21.9838 57° Northeast  Level Estimated
Tue 09:15:00 AM 59.4526 22.1652 57° Northeast  Level Estimated
Tue 09:16:00 AM 59.5113 22.3448 57° Northeast  Level Estimated
Tue 09:17:00 AM 59.5697 22.5250 57° Northeast  Level Estimated
Tue 09:18:00 AM 59.6279 22.7058 57° Northeast  Level Estimated
Tue 09:19:00 AM 59.6858 22.8873 58° Northeast  Level Estimated
Tue 09:20:00 AM 59.7435 23.0694 58° Northeast  Level Estimated
Tue 09:21:00 AM 59.8009 23.2521 58° Northeast  Level Estimated
Tue 09:22:00 AM 59.8581 23.4354 58° Northeast  Level Estimated
Tue 09:23:00 AM 59.9150 23.6194 58° Northeast  Level Estimated
Tue 09:24:00 AM 59.9716 23.8040 58° Northeast  Level Estimated
Tue 09:25:00 AM 60.0280 23.9892 59° Northeast  Level Estimated
Tue 09:26:00 AM 60.0841 24.1751 59° Northeast  Level Estimated
Tue 09:27:00 AM 60.1400 24.3616 59° Northeast  Level Estimated
Tue 09:28:00 AM 60.1956 24.5487 59° Northeast  Level Estimated
Tue 09:29:00 AM 60.2510 24.7365 59° Northeast  Level Estimated
Tue 09:30:00 AM 60.3060 24.9249 59° Northeast  Level Estimated
Tue 09:31:00 AM 60.3172 24.9633 60° Northeast  Level Estimated
Tue 09:32:00 AM 60.3172 24.9633 North  Level Estimated
Tue 09:33:00 AM 60.3172 24.9633 North  Level Estimated
Tue 09:34:00 AM 60.3172 24.9633 North  Level Estimated
Tue 09:35:00 AM 60.3172 24.9633 North  Level Estimated
Tue 09:36:00 AM 60.3172 24.9633 North  Level Estimated
Tue 09:37:00 AM 60.3172 24.9633 North  Level Estimated
Tue 09:38:00 AM 60.3172 24.9633 North  Level Estimated
Tue 09:39:00 AM 60.3172 24.9633 North  Level Estimated
Tue 09:40:00 AM 60.3172 24.9633 North  Level Estimated
Tue 09:41:00 AM 60.3172 24.9633 North  Level Estimated
Tue 09:42:00 AM 60.3172 24.9633 North  Level Estimated
Tue 09:43:00 AM 60.3172 24.9633 North  Level Estimated

Login

Don't have an account? Register now (free) for customized features, flight alerts, and more!